sensor_id;sensor_type;location;lat;lon;timestamp;P1;durP1;ratioP1;P2;durP2;ratioP2
66972;SDS011;53902;51.466;-2.586;2023-02-15T00:00:08;42.00;;;20.38;;
66972;SDS011;53902;51.466;-2.586;2023-02-15T00:02:36;43.30;;;20.20;;
66972;SDS011;53902;51.466;-2.586;2023-02-15T00:05:01;42.45;;;20.48;;
66972;SDS011;53902;51.466;-2.586;2023-02-15T00:07:27;41.65;;;19.98;;
66972;SDS011;53902;51.466;-2.586;2023-02-15T00:09:52;38.85;;;19.17;;
66972;SDS011;53902;51.466;-2.586;2023-02-15T00:12:18;44.05;;;20.35;;
66972;SDS011;53902;51.466;-2.586;2023-02-15T00:14:43;42.70;;;20.92;;
66972;SDS011;53902;51.466;-2.586;2023-02-15T00:17:09;48.33;;;20.55;;
66972;SDS011;53902;51.466;-2.586;2023-02-15T00:19:34;38.20;;;19.27;;
66972;SDS011;53902;51.466;-2.586;2023-02-15T00:22:00;38.35;;;19.40;;
66972;SDS011;53902;51.466;-2.586;2023-02-15T00:24:26;40.13;;;20.90;;
66972;SDS011;53902;51.466;-2.586;2023-02-15T00:26:51;40.35;;;19.48;;
66972;SDS011;53902;51.466;-2.586;2023-02-15T00:29:18;39.55;;;20.08;;
66972;SDS011;53902;51.466;-2.586;2023-02-15T00:31:44;35.83;;;18.73;;
66972;SDS011;53902;51.466;-2.586;2023-02-15T00:36:40;41.63;;;19.38;;
66972;SDS011;53902;51.466;-2.586;2023-02-15T00:39:06;41.35;;;19.35;;
66972;SDS011;53902;51.466;-2.586;2023-02-15T00:41:32;37.40;;;18.95;;
66972;SDS011;53902;51.466;-2.586;2023-02-15T00:43:57;38.92;;;19.33;;
66972;SDS011;53902;51.466;-2.586;2023-02-15T00:46:23;44.80;;;20.13;;
66972;SDS011;53902;51.466;-2.586;2023-02-15T00:48:49;41.08;;;20.13;;
66972;SDS011;53902;51.466;-2.586;2023-02-15T00:51:14;41.80;;;20.58;;
66972;SDS011;53902;51.466;-2.586;2023-02-15T00:53:40;38.35;;;18.70;;
66972;SDS011;53902;51.466;-2.586;2023-02-15T00:56:05;41.53;;;19.83;;
66972;SDS011;53902;51.466;-2.586;2023-02-15T00:58:31;39.95;;;20.05;;
66972;SDS011;53902;51.466;-2.586;2023-02-15T01:01:02;38.15;;;19.75;;
66972;SDS011;53902;51.466;-2.586;2023-02-15T01:03:29;40.33;;;19.42;;
66972;SDS011;53902;51.466;-2.586;2023-02-15T01:05:54;39.15;;;19.15;;
66972;SDS011;53902;51.466;-2.586;2023-02-15T01:08:20;40.15;;;19.63;;
66972;SDS011;53902;51.466;-2.586;2023-02-15T01:10:45;42.65;;;20.27;;
66972;SDS011;53902;51.466;-2.586;2023-02-15T01:13:12;40.78;;;19.58;;
66972;SDS011;53902;51.466;-2.586;2023-02-15T01:15:39;48.75;;;20.70;;
66972;SDS011;53902;51.466;-2.586;2023-02-15T01:18:04;44.90;;;20.63;;
66972;SDS011;53902;51.466;-2.586;2023-02-15T01:20:33;37.45;;;19.90;;
66972;SDS011;53902;51.466;-2.586;2023-02-15T01:23:02;40.28;;;20.05;;
66972;SDS011;53902;51.466;-2.586;2023-02-15T01:25:27;44.35;;;20.20;;
66972;SDS011;53902;51.466;-2.586;2023-02-15T01:27:53;44.00;;;20.02;;
66972;SDS011;53902;51.466;-2.586;2023-02-15T01:30:19;41.00;;;19.88;;
66972;SDS011;53902;51.466;-2.586;2023-02-15T01:32:44;40.50;;;20.63;;
66972;SDS011;53902;51.466;-2.586;2023-02-15T01:35:10;44.55;;;21.30;;
66972;SDS011;53902;51.466;-2.586;2023-02-15T01:37:36;48.58;;;21.63;;
66972;SDS011;53902;51.466;-2.586;2023-02-15T01:40:03;48.55;;;23.25;;
66972;SDS011;53902;51.466;-2.586;2023-02-15T01:42:44;44.42;;;21.70;;
66972;SDS011;53902;51.466;-2.586;2023-02-15T01:45:30;41.25;;;19.80;;
66972;SDS011;53902;51.466;-2.586;2023-02-15T01:50:33;41.20;;;19.98;;
66972;SDS011;53902;51.466;-2.586;2023-02-15T01:53:14;40.90;;;19.80;;
66972;SDS011;53902;51.466;-2.586;2023-02-15T01:56:26;38.33;;;19.33;;
66972;SDS011;53902;51.466;-2.586;2023-02-15T01:58:34;47.45;;;20.10;;
66972;SDS011;53902;51.466;-2.586;2023-02-15T02:01:00;42.43;;;21.27;;
66972;SDS011;53902;51.466;-2.586;2023-02-15T02:06:15;45.05;;;21.50;;
66972;SDS011;53902;51.466;-2.586;2023-02-15T02:08:42;46.70;;;22.23;;
66972;SDS011;53902;51.466;-2.586;2023-02-15T02:11:11;46.67;;;21.80;;
66972;SDS011;53902;51.466;-2.586;2023-02-15T02:13:38;46.20;;;21.45;;
66972;SDS011;53902;51.466;-2.586;2023-02-15T02:16:10;42.45;;;21.73;;
66972;SDS011;53902;51.466;-2.586;2023-02-15T02:18:44;50.63;;;22.05;;
66972;SDS011;53902;51.466;-2.586;2023-02-15T02:33:18;47.03;;;22.05;;
66972;SDS011;53902;51.466;-2.586;2023-02-15T02:46:28;46.35;;;21.92;;
66972;SDS011;53902;51.466;-2.586;2023-02-15T02:48:57;53.33;;;22.80;;
66972;SDS011;53902;51.466;-2.586;2023-02-15T02:51:23;54.58;;;23.88;;
66972;SDS011;53902;51.466;-2.586;2023-02-15T02:53:53;47.72;;;23.38;;
66972;SDS011;53902;51.466;-2.586;2023-02-15T02:56:55;52.10;;;24.58;;
66972;SDS011;53902;51.466;-2.586;2023-02-15T02:59:19;55.05;;;24.33;;
66972;SDS011;53902;51.466;-2.586;2023-02-15T03:01:57;49.75;;;23.92;;
66972;SDS011;53902;51.466;-2.586;2023-02-15T03:04:37;53.15;;;24.77;;
66972;SDS011;53902;51.466;-2.586;2023-02-15T03:07:26;50.95;;;25.02;;
66972;SDS011;53902;51.466;-2.586;2023-02-15T03:09:53;55.33;;;24.48;;
66972;SDS011;53902;51.466;-2.586;2023-02-15T03:15:41;51.88;;;24.10;;
66972;SDS011;53902;51.466;-2.586;2023-02-15T03:17:47;53.25;;;25.23;;
66972;SDS011;53902;51.466;-2.586;2023-02-15T03:20:24;53.10;;;23.33;;
66972;SDS011;53902;51.466;-2.586;2023-02-15T03:22:53;57.72;;;25.85;;
66972;SDS011;53902;51.466;-2.586;2023-02-15T03:25:21;59.20;;;26.35;;
66972;SDS011;53902;51.466;-2.586;2023-02-15T03:27:49;55.85;;;24.70;;
66972;SDS011;53902;51.466;-2.586;2023-02-15T03:30:20;51.95;;;25.05;;
66972;SDS011;53902;51.466;-2.586;2023-02-15T03:32:47;61.47;;;28.80;;
66972;SDS011;53902;51.466;-2.586;2023-02-15T03:35:13;60.47;;;26.83;;
66972;SDS011;53902;51.466;-2.586;2023-02-15T03:37:50;57.65;;;26.58;;
66972;SDS011;53902;51.466;-2.586;2023-02-15T03:40:37;54.70;;;25.55;;
66972;SDS011;53902;51.466;-2.586;2023-02-15T03:43:24;58.63;;;25.98;;
66972;SDS011;53902;51.466;-2.586;2023-02-15T03:46:08;56.00;;;26.63;;
66972;SDS011;53902;51.466;-2.586;2023-02-15T03:48:42;53.38;;;25.58;;
66972;SDS011;53902;51.466;-2.586;2023-02-15T03:51:14;54.60;;;26.08;;
66972;SDS011;53902;51.466;-2.586;2023-02-15T03:54:10;55.83;;;26.63;;
66972;SDS011;53902;51.466;-2.586;2023-02-15T03:56:59;56.15;;;26.60;;
66972;SDS011;53902;51.466;-2.586;2023-02-15T03:59:44;56.85;;;27.10;;
66972;SDS011;53902;51.466;-2.586;2023-02-15T04:02:29;57.00;;;26.17;;
66972;SDS011;53902;51.466;-2.586;2023-02-15T04:05:04;60.63;;;27.17;;
66972;SDS011;53902;51.466;-2.586;2023-02-15T04:07:29;64.15;;;27.42;;
66972;SDS011;53902;51.466;-2.586;2023-02-15T04:09:55;58.63;;;27.15;;
66972;SDS011;53902;51.466;-2.586;2023-02-15T04:12:39;62.85;;;27.00;;
66972;SDS011;53902;51.466;-2.586;2023-02-15T04:15:05;60.35;;;27.05;;
66972;SDS011;53902;51.466;-2.586;2023-02-15T04:17:49;64.80;;;28.88;;
66972;SDS011;53902;51.466;-2.586;2023-02-15T04:20:14;59.17;;;27.83;;
66972;SDS011;53902;51.466;-2.586;2023-02-15T04:22:58;66.93;;;30.30;;
66972;SDS011;53902;51.466;-2.586;2023-02-15T04:25:42;61.90;;;27.52;;
66972;SDS011;53902;51.466;-2.586;2023-02-15T04:28:08;61.63;;;28.00;;
66972;SDS011;53902;51.466;-2.586;2023-02-15T04:30:34;60.40;;;28.52;;
66972;SDS011;53902;51.466;-2.586;2023-02-15T04:32:59;62.00;;;27.88;;
66972;SDS011;53902;51.466;-2.586;2023-02-15T04:35:25;59.38;;;28.48;;
66972;SDS011;53902;51.466;-2.586;2023-02-15T04:37:50;62.42;;;27.33;;
66972;SDS011;53902;51.466;-2.586;2023-02-15T04:40:16;62.47;;;27.15;;
66972;SDS011;53902;51.466;-2.586;2023-02-15T04:42:42;64.10;;;26.92;;
66972;SDS011;53902;51.466;-2.586;2023-02-15T04:45:11;62.10;;;26.90;;
66972;SDS011;53902;51.466;-2.586;2023-02-15T04:47:36;64.32;;;29.27;;
66972;SDS011;53902;51.466;-2.586;2023-02-15T04:50:02;61.65;;;28.67;;
66972;SDS011;53902;51.466;-2.586;2023-02-15T04:52:29;74.25;;;28.90;;
66972;SDS011;53902;51.466;-2.586;2023-02-15T04:54:55;63.53;;;27.65;;
66972;SDS011;53902;51.466;-2.586;2023-02-15T04:57:26;61.97;;;28.65;;
66972;SDS011;53902;51.466;-2.586;2023-02-15T04:59:55;61.65;;;28.80;;
66972;SDS011;53902;51.466;-2.586;2023-02-15T05:02:25;62.72;;;27.90;;
66972;SDS011;53902;51.466;-2.586;2023-02-15T05:04:50;62.22;;;27.98;;
66972;SDS011;53902;51.466;-2.586;2023-02-15T05:07:16;57.50;;;27.55;;
66972;SDS011;53902;51.466;-2.586;2023-02-15T05:09:42;64.22;;;28.52;;
66972;SDS011;53902;51.466;-2.586;2023-02-15T05:12:08;62.60;;;28.65;;
66972;SDS011;53902;51.466;-2.586;2023-02-15T05:14:33;68.30;;;30.23;;
66972;SDS011;53902;51.466;-2.586;2023-02-15T05:16:59;70.32;;;29.38;;
66972;SDS011;53902;51.466;-2.586;2023-02-15T05:19:26;70.65;;;30.20;;
66972;SDS011;53902;51.466;-2.586;2023-02-15T05:21:53;70.03;;;29.75;;
66972;SDS011;53902;51.466;-2.586;2023-02-15T05:24:19;70.38;;;30.45;;
66972;SDS011;53902;51.466;-2.586;2023-02-15T05:27:04;71.57;;;28.77;;
66972;SDS011;53902;51.466;-2.586;2023-02-15T05:29:53;67.40;;;29.73;;
66972;SDS011;53902;51.466;-2.586;2023-02-15T05:32:19;66.35;;;28.77;;
66972;SDS011;53902;51.466;-2.586;2023-02-15T05:34:45;69.15;;;29.65;;
66972;SDS011;53902;51.466;-2.586;2023-02-15T05:42:21;66.65;;;30.08;;
66972;SDS011;53902;51.466;-2.586;2023-02-15T05:44:46;118.60;;;32.38;;
66972;SDS011;53902;51.466;-2.586;2023-02-15T05:47:12;67.88;;;30.13;;
66972;SDS011;53902;51.466;-2.586;2023-02-15T05:49:38;67.60;;;30.05;;
66972;SDS011;53902;51.466;-2.586;2023-02-15T05:52:03;64.82;;;29.60;;
66972;SDS011;53902;51.466;-2.586;2023-02-15T05:54:29;75.80;;;30.13;;
66972;SDS011;53902;51.466;-2.586;2023-02-15T05:56:54;64.28;;;29.23;;
66972;SDS011;53902;51.466;-2.586;2023-02-15T05:59:20;64.03;;;28.23;;
66972;SDS011;53902;51.466;-2.586;2023-02-15T06:01:46;61.78;;;29.42;;
66972;SDS011;53902;51.466;-2.586;2023-02-15T06:04:12;62.05;;;28.65;;
66972;SDS011;53902;51.466;-2.586;2023-02-15T06:06:38;59.25;;;27.67;;
66972;SDS011;53902;51.466;-2.586;2023-02-15T06:09:04;69.30;;;29.30;;
66972;SDS011;53902;51.466;-2.586;2023-02-15T06:11:29;61.33;;;28.10;;
66972;SDS011;53902;51.466;-2.586;2023-02-15T06:13:58;61.90;;;27.98;;
66972;SDS011;53902;51.466;-2.586;2023-02-15T06:16:23;59.47;;;27.65;;
66972;SDS011;53902;51.466;-2.586;2023-02-15T06:18:49;66.25;;;28.80;;
66972;SDS011;53902;51.466;-2.586;2023-02-15T06:21:15;63.00;;;28.15;;
66972;SDS011;53902;51.466;-2.586;2023-02-15T06:23:40;58.78;;;26.70;;
66972;SDS011;53902;51.466;-2.586;2023-02-15T06:26:06;65.10;;;28.30;;
66972;SDS011;53902;51.466;-2.586;2023-02-15T06:28:49;59.13;;;28.67;;
66972;SDS011;53902;51.466;-2.586;2023-02-15T06:31:17;64.80;;;28.08;;
66972;SDS011;53902;51.466;-2.586;2023-02-15T06:33:43;55.17;;;26.92;;
66972;SDS011;53902;51.466;-2.586;2023-02-15T06:36:11;65.43;;;28.63;;
66972;SDS011;53902;51.466;-2.586;2023-02-15T06:38:37;59.08;;;27.05;;
66972;SDS011;53902;51.466;-2.586;2023-02-15T06:41:03;68.53;;;28.65;;
66972;SDS011;53902;51.466;-2.586;2023-02-15T06:43:29;62.05;;;27.95;;
66972;SDS011;53902;51.466;-2.586;2023-02-15T06:45:54;58.20;;;27.00;;
66972;SDS011;53902;51.466;-2.586;2023-02-15T06:48:19;62.40;;;27.58;;
66972;SDS011;53902;51.466;-2.586;2023-02-15T06:50:45;61.47;;;27.05;;
66972;SDS011;53902;51.466;-2.586;2023-02-15T06:53:10;62.38;;;27.83;;
66972;SDS011;53902;51.466;-2.586;2023-02-15T06:55:36;63.35;;;27.40;;
66972;SDS011;53902;51.466;-2.586;2023-02-15T06:58:01;56.58;;;27.58;;
66972;SDS011;53902;51.466;-2.586;2023-02-15T07:00:27;57.70;;;26.55;;
66972;SDS011;53902;51.466;-2.586;2023-02-15T07:02:56;56.13;;;25.95;;
66972;SDS011;53902;51.466;-2.586;2023-02-15T07:05:23;63.80;;;27.75;;
66972;SDS011;53902;51.466;-2.586;2023-02-15T07:07:49;61.65;;;26.23;;
66972;SDS011;53902;51.466;-2.586;2023-02-15T07:10:15;58.85;;;27.17;;
66972;SDS011;53902;51.466;-2.586;2023-02-15T07:12:41;62.28;;;27.40;;
66972;SDS011;53902;51.466;-2.586;2023-02-15T07:15:14;58.75;;;27.08;;
66972;SDS011;53902;51.466;-2.586;2023-02-15T07:17:45;61.65;;;25.70;;
66972;SDS011;53902;51.466;-2.586;2023-02-15T07:20:17;61.33;;;26.73;;
66972;SDS011;53902;51.466;-2.586;2023-02-15T07:22:45;58.28;;;26.33;;
66972;SDS011;53902;51.466;-2.586;2023-02-15T07:25:13;62.42;;;25.75;;
66972;SDS011;53902;51.466;-2.586;2023-02-15T07:27:39;56.90;;;26.25;;
66972;SDS011;53902;51.466;-2.586;2023-02-15T07:30:13;56.45;;;25.90;;
66972;SDS011;53902;51.466;-2.586;2023-02-15T07:32:40;55.95;;;25.50;;
66972;SDS011;53902;51.466;-2.586;2023-02-15T07:35:25;52.63;;;23.95;;
66972;SDS011;53902;51.466;-2.586;2023-02-15T07:37:51;57.30;;;25.83;;
66972;SDS011;53902;51.466;-2.586;2023-02-15T07:40:18;55.92;;;25.45;;
66972;SDS011;53902;51.466;-2.586;2023-02-15T07:42:44;60.95;;;26.40;;
66972;SDS011;53902;51.466;-2.586;2023-02-15T07:45:09;54.90;;;25.50;;
66972;SDS011;53902;51.466;-2.586;2023-02-15T07:47:38;52.90;;;24.05;;
66972;SDS011;53902;51.466;-2.586;2023-02-15T07:50:12;53.20;;;24.15;;
66972;SDS011;53902;51.466;-2.586;2023-02-15T07:52:38;58.15;;;25.95;;
66972;SDS011;53902;51.466;-2.586;2023-02-15T07:55:03;53.38;;;25.58;;
66972;SDS011;53902;51.466;-2.586;2023-02-15T07:57:30;60.35;;;26.52;;
66972;SDS011;53902;51.466;-2.586;2023-02-15T07:59:58;56.85;;;26.02;;
66972;SDS011;53902;51.466;-2.586;2023-02-15T08:02:23;57.22;;;27.05;;
66972;SDS011;53902;51.466;-2.586;2023-02-15T08:04:49;55.75;;;26.83;;
66972;SDS011;53902;51.466;-2.586;2023-02-15T08:07:15;52.50;;;25.88;;
66972;SDS011;53902;51.466;-2.586;2023-02-15T08:09:40;54.88;;;27.17;;
66972;SDS011;53902;51.466;-2.586;2023-02-15T08:12:06;56.60;;;27.65;;
66972;SDS011;53902;51.466;-2.586;2023-02-15T08:14:31;54.80;;;26.48;;
66972;SDS011;53902;51.466;-2.586;2023-02-15T08:16:58;59.08;;;26.52;;
66972;SDS011;53902;51.466;-2.586;2023-02-15T08:19:31;55.95;;;26.05;;
66972;SDS011;53902;51.466;-2.586;2023-02-15T08:22:01;55.10;;;26.02;;
66972;SDS011;53902;51.466;-2.586;2023-02-15T08:24:38;60.50;;;26.77;;
66972;SDS011;53902;51.466;-2.586;2023-02-15T08:27:04;56.90;;;25.63;;
66972;SDS011;53902;51.466;-2.586;2023-02-15T08:31:57;56.40;;;26.52;;
66972;SDS011;53902;51.466;-2.586;2023-02-15T08:34:27;59.45;;;26.70;;
66972;SDS011;53902;51.466;-2.586;2023-02-15T08:36:53;57.38;;;25.88;;
66972;SDS011;53902;51.466;-2.586;2023-02-15T08:39:19;67.72;;;28.33;;
66972;SDS011;53902;51.466;-2.586;2023-02-15T08:41:48;58.30;;;28.25;;
66972;SDS011;53902;51.466;-2.586;2023-02-15T08:44:14;60.88;;;25.55;;
66972;SDS011;53902;51.466;-2.586;2023-02-15T08:49:07;56.67;;;24.70;;
66972;SDS011;53902;51.466;-2.586;2023-02-15T08:51:34;58.40;;;25.33;;
66972;SDS011;53902;51.466;-2.586;2023-02-15T08:56:35;51.45;;;23.85;;
66972;SDS011;53902;51.466;-2.586;2023-02-15T08:59:02;51.20;;;24.73;;
66972;SDS011;53902;51.466;-2.586;2023-02-15T09:01:30;61.08;;;25.55;;
66972;SDS011;53902;51.466;-2.586;2023-02-15T09:04:00;52.75;;;24.02;;
66972;SDS011;53902;51.466;-2.586;2023-02-15T09:06:29;51.17;;;24.52;;
66972;SDS011;53902;51.466;-2.586;2023-02-15T09:08:54;60.10;;;23.58;;
66972;SDS011;53902;51.466;-2.586;2023-02-15T09:11:21;54.38;;;23.95;;
66972;SDS011;53902;51.466;-2.586;2023-02-15T09:13:52;54.47;;;24.63;;
66972;SDS011;53902;51.466;-2.586;2023-02-15T09:16:20;55.47;;;24.10;;
66972;SDS011;53902;51.466;-2.586;2023-02-15T09:18:46;49.07;;;22.77;;
66972;SDS011;53902;51.466;-2.586;2023-02-15T09:21:13;58.63;;;24.80;;
66972;SDS011;53902;51.466;-2.586;2023-02-15T09:23:40;58.10;;;25.20;;
66972;SDS011;53902;51.466;-2.586;2023-02-15T09:26:08;59.95;;;24.38;;
66972;SDS011;53902;51.466;-2.586;2023-02-15T09:28:35;58.20;;;25.65;;
66972;SDS011;53902;51.466;-2.586;2023-02-15T09:31:07;55.50;;;24.25;;
66972;SDS011;53902;51.466;-2.586;2023-02-15T09:33:34;57.10;;;24.20;;
66972;SDS011;53902;51.466;-2.586;2023-02-15T09:36:01;47.50;;;21.20;;
66972;SDS011;53902;51.466;-2.586;2023-02-15T09:38:27;51.33;;;23.38;;
66972;SDS011;53902;51.466;-2.586;2023-02-15T09:41:40;47.85;;;21.85;;
66972;SDS011;53902;51.466;-2.586;2023-02-15T09:43:40;51.35;;;20.98;;
66972;SDS011;53902;51.466;-2.586;2023-02-15T09:48:47;41.70;;;18.73;;
66972;SDS011;53902;51.466;-2.586;2023-02-15T09:56:37;38.22;;;17.23;;
66972;SDS011;53902;51.466;-2.586;2023-02-15T10:18:17;26.63;;;12.55;;
66972;SDS011;53902;51.466;-2.586;2023-02-15T10:21:08;26.90;;;12.90;;
66972;SDS011;53902;51.466;-2.586;2023-02-15T10:26:16;30.40;;;12.45;;
66972;SDS011;53902;51.466;-2.586;2023-02-15T10:28:53;26.52;;;11.10;;
66972;SDS011;53902;51.466;-2.586;2023-02-15T10:34:09;27.33;;;10.93;;
66972;SDS011;53902;51.466;-2.586;2023-02-15T10:51:03;20.13;;;11.02;;
66972;SDS011;53902;51.466;-2.586;2023-02-15T11:07:39;20.75;;;9.60;;
66972;SDS011;53902;51.466;-2.586;2023-02-15T11:12:56;18.55;;;9.35;;
66972;SDS011;53902;51.466;-2.586;2023-02-15T11:17:50;19.43;;;9.73;;
66972;SDS011;53902;51.466;-2.586;2023-02-15T11:22:57;23.75;;;8.70;;
66972;SDS011;53902;51.466;-2.586;2023-02-15T11:25:25;22.02;;;9.57;;
66972;SDS011;53902;51.466;-2.586;2023-02-15T11:27:55;16.75;;;8.35;;
66972;SDS011;53902;51.466;-2.586;2023-02-15T11:30:25;21.83;;;9.55;;
66972;SDS011;53902;51.466;-2.586;2023-02-15T11:32:57;18.23;;;8.93;;
66972;SDS011;53902;51.466;-2.586;2023-02-15T11:35:37;20.85;;;9.57;;
66972;SDS011;53902;51.466;-2.586;2023-02-15T11:38:16;22.23;;;10.02;;
66972;SDS011;53902;51.466;-2.586;2023-02-15T11:43:16;21.25;;;9.07;;
66972;SDS011;53902;51.466;-2.586;2023-02-15T11:45:45;20.92;;;9.00;;
66972;SDS011;53902;51.466;-2.586;2023-02-15T11:48:12;21.73;;;8.10;;
66972;SDS011;53902;51.466;-2.586;2023-02-15T11:50:39;16.83;;;7.85;;
66972;SDS011;53902;51.466;-2.586;2023-02-15T11:53:18;19.50;;;8.43;;
66972;SDS011;53902;51.466;-2.586;2023-02-15T11:55:47;26.70;;;8.07;;
66972;SDS011;53902;51.466;-2.586;2023-02-15T12:06:12;18.60;;;7.50;;
66972;SDS011;53902;51.466;-2.586;2023-02-15T12:09:01;18.45;;;7.45;;
66972;SDS011;53902;51.466;-2.586;2023-02-15T12:11:46;24.33;;;8.05;;
66972;SDS011;53902;51.466;-2.586;2023-02-15T12:14:12;24.35;;;7.50;;
66972;SDS011;53902;51.466;-2.586;2023-02-15T12:21:55;22.45;;;8.57;;
66972;SDS011;53902;51.466;-2.586;2023-02-15T12:24:23;27.98;;;8.85;;
66972;SDS011;53902;51.466;-2.586;2023-02-15T12:29:23;14.98;;;7.45;;
66972;SDS011;53902;51.466;-2.586;2023-02-15T12:31:52;19.48;;;7.07;;
66972;SDS011;53902;51.466;-2.586;2023-02-15T12:34:31;21.98;;;7.57;;
66972;SDS011;53902;51.466;-2.586;2023-02-15T12:37:08;21.33;;;8.25;;
66972;SDS011;53902;51.466;-2.586;2023-02-15T12:39:35;17.13;;;7.82;;
66972;SDS011;53902;51.466;-2.586;2023-02-15T12:42:02;17.50;;;7.78;;
66972;SDS011;53902;51.466;-2.586;2023-02-15T12:44:32;16.98;;;7.35;;
66972;SDS011;53902;51.466;-2.586;2023-02-15T12:47:00;21.88;;;7.28;;
66972;SDS011;53902;51.466;-2.586;2023-02-15T12:49:26;17.75;;;7.43;;
66972;SDS011;53902;51.466;-2.586;2023-02-15T12:51:57;18.40;;;7.18;;
66972;SDS011;53902;51.466;-2.586;2023-02-15T12:54:41;12.75;;;6.10;;
66972;SDS011;53902;51.466;-2.586;2023-02-15T12:59:47;15.80;;;6.47;;
66972;SDS011;53902;51.466;-2.586;2023-02-15T13:02:16;17.70;;;6.60;;
66972;SDS011;53902;51.466;-2.586;2023-02-15T13:04:49;23.73;;;6.18;;
66972;SDS011;53902;51.466;-2.586;2023-02-15T13:07:15;17.17;;;6.00;;
66972;SDS011;53902;51.466;-2.586;2023-02-15T13:09:40;22.35;;;6.50;;
66972;SDS011;53902;51.466;-2.586;2023-02-15T13:12:22;20.30;;;6.18;;
66972;SDS011;53902;51.466;-2.586;2023-02-15T13:14:51;18.63;;;6.30;;
66972;SDS011;53902;51.466;-2.586;2023-02-15T13:17:19;13.98;;;5.85;;
66972;SDS011;53902;51.466;-2.586;2023-02-15T13:20:04;11.95;;;6.03;;
66972;SDS011;53902;51.466;-2.586;2023-02-15T13:25:01;19.67;;;6.13;;
66972;SDS011;53902;51.466;-2.586;2023-02-15T13:27:35;19.00;;;6.47;;
66972;SDS011;53902;51.466;-2.586;2023-02-15T13:30:03;16.08;;;6.80;;
66972;SDS011;53902;51.466;-2.586;2023-02-15T13:32:39;15.00;;;6.15;;
66972;SDS011;53902;51.466;-2.586;2023-02-15T13:35:06;16.42;;;6.93;;
66972;SDS011;53902;51.466;-2.586;2023-02-15T13:37:50;22.30;;;7.43;;
66972;SDS011;53902;51.466;-2.586;2023-02-15T13:40:55;15.57;;;6.57;;
66972;SDS011;53902;51.466;-2.586;2023-02-15T13:51:40;20.88;;;6.93;;
66972;SDS011;53902;51.466;-2.586;2023-02-15T13:54:33;17.48;;;7.00;;
66972;SDS011;53902;51.466;-2.586;2023-02-15T14:10:21;18.77;;;7.43;;
66972;SDS011;53902;51.466;-2.586;2023-02-15T14:15:44;13.40;;;6.85;;
66972;SDS011;53902;51.466;-2.586;2023-02-15T14:29:07;17.77;;;7.25;;
66972;SDS011;53902;51.466;-2.586;2023-02-15T14:34:42;20.27;;;6.90;;
66972;SDS011;53902;51.466;-2.586;2023-02-15T14:37:09;14.85;;;6.53;;
66972;SDS011;53902;51.466;-2.586;2023-02-15T14:39:55;16.88;;;6.97;;
66972;SDS011;53902;51.466;-2.586;2023-02-15T14:45:30;20.13;;;7.57;;
66972;SDS011;53902;51.466;-2.586;2023-02-15T14:48:21;12.82;;;6.68;;
66972;SDS011;53902;51.466;-2.586;2023-02-15T14:51:10;11.82;;;4.85;;
66972;SDS011;53902;51.466;-2.586;2023-02-15T14:54:54;8.02;;;3.85;;
66972;SDS011;53902;51.466;-2.586;2023-02-15T15:07:21;7.70;;;2.30;;
66972;SDS011;53902;51.466;-2.586;2023-02-15T15:09:58;3.33;;;1.77;;
66972;SDS011;53902;51.466;-2.586;2023-02-15T15:14:50;3.78;;;1.80;;
66972;SDS011;53902;51.466;-2.586;2023-02-15T15:25:47;2.65;;;1.83;;
66972;SDS011;53902;51.466;-2.586;2023-02-15T15:36:51;4.65;;;2.50;;
66972;SDS011;53902;51.466;-2.586;2023-02-15T15:47:08;2.55;;;1.90;;
66972;SDS011;53902;51.466;-2.586;2023-02-15T15:49:49;4.70;;;2.28;;
66972;SDS011;53902;51.466;-2.586;2023-02-15T15:52:18;5.97;;;2.40;;
66972;SDS011;53902;51.466;-2.586;2023-02-15T15:54:46;9.55;;;3.00;;
66972;SDS011;53902;51.466;-2.586;2023-02-15T15:59:45;2.97;;;2.60;;
66972;SDS011;53902;51.466;-2.586;2023-02-15T16:02:13;8.43;;;3.50;;
66972;SDS011;53902;51.466;-2.586;2023-02-15T16:04:43;5.28;;;2.70;;
66972;SDS011;53902;51.466;-2.586;2023-02-15T16:09:41;6.18;;;2.75;;
66972;SDS011;53902;51.466;-2.586;2023-02-15T16:12:13;6.78;;;2.88;;
66972;SDS011;53902;51.466;-2.586;2023-02-15T16:14:40;6.97;;;3.08;;
66972;SDS011;53902;51.466;-2.586;2023-02-15T16:17:13;8.00;;;3.50;;
66972;SDS011;53902;51.466;-2.586;2023-02-15T16:19:42;7.82;;;3.15;;
66972;SDS011;53902;51.466;-2.586;2023-02-15T16:22:41;4.95;;;3.30;;
66972;SDS011;53902;51.466;-2.586;2023-02-15T16:25:42;4.07;;;3.35;;
66972;SDS011;53902;51.466;-2.586;2023-02-15T16:27:55;5.47;;;3.15;;
66972;SDS011;53902;51.466;-2.586;2023-02-15T16:30:31;6.47;;;3.47;;
66972;SDS011;53902;51.466;-2.586;2023-02-15T16:35:33;7.35;;;3.03;;
66972;SDS011;53902;51.466;-2.586;2023-02-15T16:38:00;6.68;;;2.85;;
66972;SDS011;53902;51.466;-2.586;2023-02-15T16:40:27;4.68;;;3.35;;
66972;SDS011;53902;51.466;-2.586;2023-02-15T16:42:54;6.70;;;3.30;;
66972;SDS011;53902;51.466;-2.586;2023-02-15T16:45:25;6.32;;;3.35;;
66972;SDS011;53902;51.466;-2.586;2023-02-15T16:47:53;6.68;;;3.50;;
66972;SDS011;53902;51.466;-2.586;2023-02-15T16:50:22;7.38;;;3.13;;
66972;SDS011;53902;51.466;-2.586;2023-02-15T16:52:51;6.72;;;3.45;;
66972;SDS011;53902;51.466;-2.586;2023-02-15T16:55:21;4.10;;;3.03;;
66972;SDS011;53902;51.466;-2.586;2023-02-15T16:57:48;6.75;;;3.30;;
66972;SDS011;53902;51.466;-2.586;2023-02-15T17:00:24;7.15;;;3.15;;
66972;SDS011;53902;51.466;-2.586;2023-02-15T17:02:58;9.15;;;4.32;;
66972;SDS011;53902;51.466;-2.586;2023-02-15T17:05:32;8.93;;;4.05;;
66972;SDS011;53902;51.466;-2.586;2023-02-15T17:08:25;6.13;;;4.07;;
66972;SDS011;53902;51.466;-2.586;2023-02-15T17:13:31;13.38;;;4.18;;
66972;SDS011;53902;51.466;-2.586;2023-02-15T17:18:43;9.07;;;3.85;;
66972;SDS011;53902;51.466;-2.586;2023-02-15T17:21:11;8.48;;;4.20;;
66972;SDS011;53902;51.466;-2.586;2023-02-15T17:23:45;10.48;;;3.90;;
66972;SDS011;53902;51.466;-2.586;2023-02-15T17:26:19;7.05;;;4.15;;
66972;SDS011;53902;51.466;-2.586;2023-02-15T17:28:54;9.02;;;4.07;;
66972;SDS011;53902;51.466;-2.586;2023-02-15T17:31:21;12.48;;;4.00;;
66972;SDS011;53902;51.466;-2.586;2023-02-15T17:33:51;9.15;;;3.00;;
66972;SDS011;53902;51.466;-2.586;2023-02-15T17:41:22;7.63;;;2.80;;
66972;SDS011;53902;51.466;-2.586;2023-02-15T17:43:54;6.07;;;2.95;;
66972;SDS011;53902;51.466;-2.586;2023-02-15T17:46:21;6.47;;;2.40;;
66972;SDS011;53902;51.466;-2.586;2023-02-15T17:48:47;7.95;;;2.45;;
66972;SDS011;53902;51.466;-2.586;2023-02-15T17:51:13;4.22;;;2.20;;
66972;SDS011;53902;51.466;-2.586;2023-02-15T17:53:40;9.43;;;2.57;;
66972;SDS011;53902;51.466;-2.586;2023-02-15T17:56:28;6.60;;;2.88;;
66972;SDS011;53902;51.466;-2.586;2023-02-15T17:58:54;10.15;;;2.58;;
66972;SDS011;53902;51.466;-2.586;2023-02-15T18:01:19;7.88;;;2.50;;
66972;SDS011;53902;51.466;-2.586;2023-02-15T18:04:04;9.05;;;2.60;;
66972;SDS011;53902;51.466;-2.586;2023-02-15T18:06:50;8.10;;;2.85;;
66972;SDS011;53902;51.466;-2.586;2023-02-15T18:09:34;6.30;;;2.85;;
66972;SDS011;53902;51.466;-2.586;2023-02-15T18:12:22;5.47;;;2.58;;
66972;SDS011;53902;51.466;-2.586;2023-02-15T18:14:52;5.70;;;3.10;;
66972;SDS011;53902;51.466;-2.586;2023-02-15T18:17:33;9.93;;;2.83;;
66972;SDS011;53902;51.466;-2.586;2023-02-15T18:20:00;7.65;;;3.58;;
66972;SDS011;53902;51.466;-2.586;2023-02-15T18:22:29;8.43;;;3.70;;
66972;SDS011;53902;51.466;-2.586;2023-02-15T18:24:55;7.97;;;3.40;;
66972;SDS011;53902;51.466;-2.586;2023-02-15T18:27:21;9.75;;;3.33;;
66972;SDS011;53902;51.466;-2.586;2023-02-15T18:29:47;6.80;;;3.15;;